Saturday, May 28, 2016
18:08 UTC
  |  Log In   |  Register Free
Airport Search:

Raton Municipal/Crews Field Airport
(KRTN)

Raton Municipal/Crews Field Airport Diagram
No Airport Diagram Available

FAA data valid effective Mar 31 2016 - May 26 2016 (unless otherwise noted).

 
 
 
 
 
 
 
 
 
 
 
 
 
 
Current Aviation Weather for KRTN

Weather Summary


The most recent METAR observation for RTN was updated at: 12:53 UTC
METAR for KRTN is not available. Closest METAR is for KTAD
KRTN  (most recent observation was updatred at 28:17 UTC)
281753Z AUTO VRB03G15KT 10SM CLR 19/01 A3010 RMK AO2 SLP133 T01940006 10200 20006 57004

KTAD  (32.0 nm SW)   (most recent observation was updated at 28:17 UTC)
281754Z AUTO VRB04G16KT 10SM CLR 21/01 A3007 RMK AO2 SLP127 T02110011 10217 20050 58002 $

TAF for KRTN is not available.
GlobalAir.com is loading additional information.
 Current Weather at RTN
63.0 F° (17.2 C°)

Southeast winds at 4.6 mph
Pressure:
30.10 in
Humidity:
35%
Wind:
Southeast at 4.6 mph
Dew Point:
35.1 F° (1.7 C°)
Visibility:
10.00 mi
RTN NOAA Radar




Find All Airport Services Find A Hotel Find A Rental Car Find A Golf Course Find A Restaurant $100 Hamburger



Airport Weather Forecast for KRTN

Translated METAR for KRTN (1753 UTC)
METAR:
KRTN 281753Z AUTO VRB03G15KT 10SM CLR 19/01 A3010 RMK AO2 SLP133 T01940006 10200 20006 57004
Conditions at:
KRTN (Raton Muni/Crews Field, NM) observed 1753 UTC 28 May 2016
Temperature:
19°C (66.2°F)
Dewpoint:
1°C (33.8°F) [RH = 29.9]
Pressure:
30.1 inches Hg (1019.3 mb)
pressure at sea level is 133 in Hg
Winds:
variable wind direction at 3.5 mph (3 knots: 1.5 m/s)
gusting to 17.3 mph (15 knots: 7.7 m/s)
Visibility:
10 mile(s)
Ceiling:
at least 12,000 feet AGL
Clouds:
Clear below 12,000 feet AGL
Remarks:
site is un-manned
site is automated and HAS a precipitation sensor

Translated TAF for TAF for RTN is not available. Refer to local area forecast.
FBO's on the Field
FBO Company Facility Photos Services Transportation Aviation Fuel Prices: Prices include tax
Catering Weather Repair Courtesy Rental Type 100LL JetA JetA+ MOGAS 8087
 
Express Aviation Services

This FBO has not yet been rated
FS:Phillips 66
Last Updated: May-20
Login to update fuel prices
SS:
Contact Express Aviation ServicesMore FBO Information
 
Add another FBO Facility Photos Catering Weather Repair Courtesy Rental Type 100LL JetA JetA+ MOGAS 8087
Services Transportation Aviation Fuel Prices: Prices include tax


model-print
model-print
model-print
model-print